createdAt,value
2022-12-09T00:00:08.148Z,66.82
2022-12-09T00:02:35.523Z,66.55
2022-12-09T00:05:02.497Z,66.41
2022-12-09T00:07:29.530Z,66.73
2022-12-09T00:09:56.200Z,66.54
2022-12-09T00:12:23.253Z,66.76
2022-12-09T00:14:49.842Z,66.42
2022-12-09T00:17:16.801Z,66.38
2022-12-09T00:19:43.554Z,66.50
2022-12-09T00:22:10.205Z,66.25
2022-12-09T00:24:36.885Z,66.31
2022-12-09T00:27:03.802Z,66.19
2022-12-09T00:29:30.691Z,66.65
2022-12-09T00:31:57.584Z,66.73
2022-12-09T00:34:24.338Z,66.69
2022-12-09T00:36:51.037Z,66.40
2022-12-09T00:39:17.957Z,66.47
2022-12-09T00:41:44.839Z,66.75
2022-12-09T00:44:12.300Z,66.49
2022-12-09T00:46:39.159Z,66.89
2022-12-09T00:49:06.457Z,67.04
2022-12-09T00:51:33.543Z,66.86
2022-12-09T00:54:01.390Z,66.91
2022-12-09T00:56:29.871Z,67.07
2022-12-09T00:58:58.753Z,67.05
2022-12-09T01:01:26.829Z,67.43
2022-12-09T01:03:54.316Z,66.76
2022-12-09T01:06:23.915Z,67.03
2022-12-09T01:08:51.478Z,66.99
2022-12-09T01:11:21.573Z,66.70
2022-12-09T01:13:50.344Z,66.75
2022-12-09T01:16:20.522Z,66.01
2022-12-09T01:18:49.280Z,66.40
2022-12-09T01:21:16.245Z,66.56
2022-12-09T01:23:43.181Z,66.17
2022-12-09T01:26:10.585Z,66.58
2022-12-09T01:28:39.626Z,66.09
2022-12-09T01:31:15.534Z,66.83
2022-12-09T01:33:43.567Z,66.52
2022-12-09T01:36:14.871Z,66.60
2022-12-09T01:38:41.939Z,66.76
2022-12-09T01:41:08.789Z,67.03
2022-12-09T01:43:35.738Z,66.93
2022-12-09T01:46:02.754Z,66.91
2022-12-09T01:48:33.764Z,67.56
2022-12-09T01:51:20.016Z,67.36
2022-12-09T01:53:50.765Z,66.77
2022-12-09T01:56:28.947Z,67.79
2022-12-09T01:59:02.425Z,67.92
2022-12-09T02:01:29.505Z,67.51
2022-12-09T02:03:56.881Z,67.83
2022-12-09T02:06:23.889Z,67.90
2022-12-09T02:08:51.520Z,67.19
2022-12-09T02:11:27.179Z,67.49
2022-12-09T02:14:31.700Z,67.52
2022-12-09T02:17:36.073Z,67.95
2022-12-09T02:20:17.341Z,67.96
2022-12-09T02:22:48.123Z,68.18
2022-12-09T02:25:27.782Z,68.49
2022-12-09T02:28:17.132Z,68.15
2022-12-09T02:31:03.957Z,68.47
2022-12-09T02:34:07.977Z,68.61
2022-12-09T02:36:46.580Z,67.66
2022-12-09T02:39:13.411Z,67.32
2022-12-09T02:41:46.886Z,67.92
2022-12-09T02:44:17.233Z,67.26
2022-12-09T02:46:46.472Z,67.07
2022-12-09T02:49:14.718Z,67.31
2022-12-09T02:51:44.228Z,67.08
2022-12-09T02:54:16.446Z,67.41
2022-12-09T02:57:07.262Z,68.04
2022-12-09T02:59:33.966Z,67.59
2022-12-09T03:02:06.817Z,67.92
2022-12-09T03:04:33.836Z,67.76
2022-12-09T03:07:26.768Z,68.03
2022-12-09T03:10:04.684Z,68.86
2022-12-09T03:12:33.678Z,69.26
2022-12-09T03:15:05.915Z,69.76
2022-12-09T03:17:36.999Z,69.53
2022-12-09T03:20:09.114Z,69.18
2022-12-09T03:22:38.725Z,69.86
2022-12-09T03:25:47.053Z,70.81
2022-12-09T03:28:26.796Z,70.72
2022-12-09T03:30:56.270Z,70.47
2022-12-09T03:33:25.152Z,70.47
2022-12-09T03:35:56.179Z,70.78
2022-12-09T03:38:27.083Z,70.14
2022-12-09T03:41:23.719Z,70.57
2022-12-09T03:44:04.760Z,70.44
2022-12-09T03:46:32.180Z,69.62
2022-12-09T03:48:59.764Z,70.21
2022-12-09T03:51:34.705Z,69.98
2022-12-09T03:54:09.901Z,70.01
2022-12-09T03:56:41.753Z,70.07
2022-12-09T03:59:14.423Z,69.42
2022-12-09T04:01:44.533Z,69.32
2022-12-09T04:04:13.880Z,69.74
2022-12-09T04:06:40.755Z,69.00
2022-12-09T04:09:08.344Z,68.95
2022-12-09T04:11:35.591Z,67.61
2022-12-09T04:14:02.515Z,68.42
2022-12-09T04:16:29.545Z,67.73
2022-12-09T04:18:56.903Z,68.07
2022-12-09T04:21:23.985Z,68.01
2022-12-09T04:23:50.876Z,67.50
2022-12-09T04:26:21.204Z,67.70
2022-12-09T04:28:48.714Z,68.05
2022-12-09T04:31:18.161Z,67.85
2022-12-09T04:33:45.812Z,67.85
2022-12-09T04:36:15.315Z,67.51
2022-12-09T04:38:42.958Z,67.74
2022-12-09T04:41:10.409Z,67.60
2022-12-09T04:43:37.196Z,68.00
2022-12-09T04:46:10.481Z,67.58
2022-12-09T04:48:37.554Z,68.69
2022-12-09T04:51:04.457Z,68.63
2022-12-09T04:53:31.128Z,68.97
2022-12-09T04:56:14.838Z,69.21
2022-12-09T04:58:42.338Z,68.82
2022-12-09T05:01:11.355Z,68.56
2022-12-09T05:03:38.906Z,68.56
2022-12-09T05:06:08.172Z,68.59
2022-12-09T05:08:35.843Z,68.79
2022-12-09T05:11:03.484Z,69.37
2022-12-09T05:13:31.619Z,68.81
2022-12-09T05:16:02.889Z,69.16
2022-12-09T05:18:30.276Z,68.92
2022-12-09T05:20:57.398Z,69.63
2022-12-09T05:23:24.370Z,69.78
2022-12-09T05:25:51.827Z,69.70
2022-12-09T05:28:19.585Z,68.98
2022-12-09T05:30:46.609Z,68.45
2022-12-09T05:33:13.793Z,68.64
2022-12-09T05:35:52.465Z,68.04
2022-12-09T05:38:20.287Z,68.12
2022-12-09T05:40:47.265Z,69.10
2022-12-09T05:43:14.450Z,68.38
2022-12-09T05:45:41.587Z,67.62
2022-12-09T05:48:08.526Z,68.00
2022-12-09T05:50:36.620Z,68.02
2022-12-09T05:53:03.876Z,68.06
2022-12-09T05:55:36.588Z,67.90
2022-12-09T05:58:03.405Z,67.05
2022-12-09T06:00:30.353Z,67.06
2022-12-09T06:02:57.156Z,66.57
2022-12-09T06:05:24.508Z,66.59
2022-12-09T06:07:51.533Z,66.34
2022-12-09T06:10:18.970Z,66.50
2022-12-09T06:12:48.470Z,65.83
2022-12-09T06:15:20.428Z,66.04
2022-12-09T06:17:48.872Z,66.26
2022-12-09T06:20:19.407Z,66.42
2022-12-09T06:22:46.346Z,66.85
2022-12-09T06:25:13.457Z,66.40
2022-12-09T06:27:40.620Z,66.19
2022-12-09T06:30:08.347Z,66.50
2022-12-09T06:32:39.051Z,66.99
2022-12-09T06:35:07.619Z,67.07
2022-12-09T06:37:35.078Z,67.05
2022-12-09T06:40:05.400Z,66.74
2022-12-09T06:42:32.548Z,66.55
2022-12-09T06:44:59.439Z,66.56
2022-12-09T06:47:26.509Z,66.94
2022-12-09T06:49:53.448Z,67.14
2022-12-09T06:52:20.929Z,66.85
2022-12-09T06:54:48.131Z,66.80
2022-12-09T06:57:15.031Z,66.85
2022-12-09T06:59:42.200Z,66.12
2022-12-09T07:02:10.227Z,66.56
2022-12-09T07:04:37.756Z,65.81
2022-12-09T07:07:05.540Z,66.17
2022-12-09T07:09:33.173Z,65.77
2022-12-09T07:12:00.474Z,65.78
2022-12-09T07:14:27.519Z,66.07
2022-12-09T07:16:54.543Z,66.07
2022-12-09T07:19:23.277Z,66.12
2022-12-09T07:21:51.621Z,66.02
2022-12-09T07:24:20.167Z,66.46
2022-12-09T07:26:47.680Z,65.91
2022-12-09T07:29:14.744Z,66.38
2022-12-09T07:31:42.205Z,66.17
2022-12-09T07:34:11.232Z,66.57
2022-12-09T07:36:38.718Z,66.21
2022-12-09T07:39:17.809Z,66.69
2022-12-09T07:41:45.415Z,65.97
2022-12-09T07:44:12.766Z,65.98
2022-12-09T07:46:40.166Z,66.02
2022-12-09T07:49:07.584Z,65.81
2022-12-09T07:51:34.970Z,66.19
2022-12-09T07:54:01.832Z,65.63
2022-12-09T07:56:29.313Z,65.89
2022-12-09T07:58:57.374Z,65.41
2022-12-09T08:01:27.686Z,64.47
2022-12-09T08:03:55.428Z,64.48
2022-12-09T08:06:25.940Z,64.50
2022-12-09T08:08:53.230Z,63.71
2022-12-09T08:11:23.675Z,63.87
2022-12-09T08:13:51.753Z,63.62
2022-12-09T08:16:21.377Z,63.55
2022-12-09T08:18:49.606Z,63.30
2022-12-09T08:21:21.250Z,63.06
2022-12-09T08:23:49.406Z,63.73
2022-12-09T08:26:19.929Z,63.35
2022-12-09T08:28:47.767Z,62.74
2022-12-09T08:31:38.802Z,62.90
2022-12-09T08:34:08.017Z,62.91
2022-12-09T08:36:35.106Z,62.77
2022-12-09T08:39:02.282Z,62.42
2022-12-09T08:41:36.318Z,62.10
2022-12-09T08:44:11.439Z,62.24
2022-12-09T08:46:40.977Z,62.07
2022-12-09T08:49:08.472Z,62.11
2022-12-09T08:51:35.799Z,61.45
2022-12-09T08:54:04.266Z,61.54
2022-12-09T08:56:31.391Z,61.59
2022-12-09T08:58:58.179Z,60.87
2022-12-09T09:01:32.305Z,60.39
2022-12-09T09:04:05.416Z,60.80
2022-12-09T09:06:33.225Z,60.32
2022-12-09T09:09:00.292Z,60.12
2022-12-09T09:11:27.830Z,60.22
2022-12-09T09:13:54.749Z,59.54
2022-12-09T09:16:24.157Z,59.76
2022-12-09T09:18:52.554Z,59.78
2022-12-09T09:21:22.669Z,59.40
2022-12-09T09:23:50.379Z,59.21
2022-12-09T09:26:20.210Z,58.53
2022-12-09T09:28:47.326Z,58.58
2022-12-09T09:31:17.648Z,58.21
2022-12-09T09:33:45.253Z,58.04
2022-12-09T09:36:21.825Z,57.52
2022-12-09T09:38:50.768Z,57.78
2022-12-09T09:41:25.534Z,57.50
2022-12-09T09:43:55.248Z,57.79
2022-12-09T09:46:35.008Z,57.51
2022-12-09T09:49:05.963Z,57.01
2022-12-09T09:51:34.498Z,57.36
2022-12-09T09:54:06.653Z,57.87
2022-12-09T09:56:41.108Z,57.68
2022-12-09T09:59:32.856Z,57.93
2022-12-09T10:02:00.346Z,57.62
2022-12-09T10:04:43.443Z,58.06
2022-12-09T10:07:20.095Z,57.97
2022-12-09T10:10:13.525Z,58.03
2022-12-09T10:13:00.597Z,57.45
2022-12-09T10:15:41.911Z,56.84
2022-12-09T10:18:19.298Z,57.18
2022-12-09T10:20:46.922Z,56.49
2022-12-09T10:23:16.364Z,56.38
2022-12-09T10:25:56.779Z,53.71
2022-12-09T10:28:29.989Z,53.52
2022-12-09T10:30:57.346Z,52.88
2022-12-09T10:33:35.362Z,51.88
2022-12-09T10:36:03.658Z,52.15
2022-12-09T10:38:31.701Z,51.57
2022-12-09T10:41:09.825Z,52.29
2022-12-09T10:43:39.599Z,53.46
2022-12-09T10:46:18.064Z,54.41
2022-12-09T10:48:46.426Z,55.92
2022-12-09T10:51:15.789Z,57.32
2022-12-09T10:53:48.688Z,59.11
2022-12-09T10:56:22.709Z,59.29
2022-12-09T10:58:49.575Z,60.35
2022-12-09T11:01:17.413Z,60.81
2022-12-09T11:03:53.643Z,62.21
2022-12-09T11:06:23.697Z,62.71
2022-12-09T11:09:00.124Z,63.82
2022-12-09T11:11:49.605Z,64.48
2022-12-09T11:14:24.906Z,64.73
2022-12-09T11:16:54.477Z,64.15
2022-12-09T11:19:34.287Z,62.39
2022-12-09T11:22:28.367Z,59.33
2022-12-09T11:25:06.141Z,57.43
2022-12-09T11:27:34.879Z,56.83
2022-12-09T11:30:14.345Z,56.86
2022-12-09T11:33:00.849Z,57.09
2022-12-09T11:35:43.717Z,58.18
2022-12-09T11:38:35.715Z,57.10
2022-12-09T11:41:13.117Z,56.05
2022-12-09T11:43:56.386Z,55.29
2022-12-09T11:46:29.294Z,51.69
2022-12-09T11:48:59.364Z,48.56
2022-12-09T11:51:31.024Z,45.87
2022-12-09T11:54:10.827Z,44.90
2022-12-09T11:56:39.941Z,44.21
2022-12-09T11:59:13.356Z,42.08
2022-12-09T12:01:56.289Z,41.74
2022-12-09T12:04:30.882Z,42.38
2022-12-09T12:07:24.444Z,43.64
2022-12-09T12:09:55.114Z,45.11
2022-12-09T12:12:54.533Z,45.91
2022-12-09T12:15:39.439Z,47.51
2022-12-09T12:18:14.507Z,48.41
2022-12-09T12:20:41.043Z,49.28
2022-12-09T12:23:46.349Z,52.09
2022-12-09T12:26:24.881Z,54.21
2022-12-09T12:28:59.088Z,54.27
2022-12-09T12:31:55.740Z,55.81
2022-12-09T12:34:27.306Z,56.50
2022-12-09T12:36:58.728Z,56.92
2022-12-09T12:39:47.091Z,57.17
2022-12-09T12:42:23.100Z,57.46
2022-12-09T12:45:22.053Z,57.39
2022-12-09T12:48:07.536Z,57.35
2022-12-09T12:50:46.864Z,57.67
2022-12-09T12:53:31.522Z,57.81
2022-12-09T12:56:07.365Z,57.61
2022-12-09T12:58:53.012Z,58.50
2022-12-09T13:01:30.516Z,58.37
2022-12-09T13:04:22.693Z,58.41
2022-12-09T13:06:55.177Z,58.82
2022-12-09T13:09:33.335Z,58.27
2022-12-09T13:12:07.303Z,58.72
2022-12-09T13:14:52.204Z,58.39
2022-12-09T13:17:25.348Z,59.22
2022-12-09T13:19:56.072Z,59.43
2022-12-09T13:22:29.707Z,58.33
2022-12-09T13:25:25.790Z,57.96
2022-12-09T13:28:04.012Z,57.68
2022-12-09T13:30:53.850Z,57.40
2022-12-09T13:33:52.802Z,57.69
2022-12-09T13:36:37.818Z,57.83
2022-12-09T13:39:05.284Z,57.95
2022-12-09T13:41:51.824Z,58.05
2022-12-09T13:44:19.424Z,57.97
2022-12-09T13:46:46.133Z,57.76
2022-12-09T13:49:19.936Z,57.36
2022-12-09T13:51:51.529Z,57.42
2022-12-09T13:54:21.072Z,57.66
2022-12-09T13:57:06.880Z,57.81
2022-12-09T13:59:42.532Z,57.70
2022-12-09T14:02:14.625Z,57.35
2022-12-09T14:04:54.184Z,57.13
2022-12-09T14:07:37.016Z,57.14
2022-12-09T14:10:04.084Z,57.58
2022-12-09T14:12:32.540Z,57.20
2022-12-09T14:15:05.289Z,57.53
2022-12-09T14:17:33.764Z,57.63
2022-12-09T14:20:21.321Z,57.75
2022-12-09T14:23:06.427Z,58.10
2022-12-09T14:25:35.963Z,57.96
2022-12-09T14:28:11.526Z,57.75
2022-12-09T14:30:52.180Z,58.02
2022-12-09T14:33:30.803Z,58.08
2022-12-09T14:36:15.692Z,58.16
2022-12-09T14:39:23.087Z,58.27
2022-12-09T14:41:49.305Z,58.75
2022-12-09T14:44:40.570Z,58.90
2022-12-09T14:47:28.171Z,58.83
2022-12-09T14:49:56.066Z,58.63
2022-12-09T14:52:30.672Z,58.85
2022-12-09T14:55:05.033Z,58.92
2022-12-09T14:57:41.458Z,59.22
2022-12-09T15:00:35.489Z,58.92
2022-12-09T15:06:02.740Z,59.14
2022-12-09T15:08:32.088Z,59.71
2022-12-09T15:11:01.690Z,59.94
2022-12-09T15:13:30.716Z,59.49
2022-12-09T15:15:57.482Z,60.28
2022-12-09T15:18:37.595Z,60.12
2022-12-09T15:21:07.868Z,59.72
2022-12-09T15:23:40.177Z,60.33
2022-12-09T15:26:28.905Z,60.52
2022-12-09T15:28:56.788Z,60.23
2022-12-09T15:31:26.823Z,60.17
2022-12-09T15:33:56.298Z,60.08
2022-12-09T15:36:34.371Z,60.28
2022-12-09T15:39:08.419Z,60.83
2022-12-09T15:42:01.652Z,60.44
2022-12-09T15:44:51.692Z,60.70
2022-12-09T15:47:25.981Z,60.91
2022-12-09T15:50:03.731Z,60.88
2022-12-09T15:52:39.089Z,60.45
2022-12-09T15:55:11.824Z,60.94
2022-12-09T15:57:40.029Z,60.38
2022-12-09T16:00:07.501Z,60.75
2022-12-09T16:02:39.411Z,61.13
2022-12-09T16:05:09.418Z,61.53
2022-12-09T16:07:37.072Z,61.38
2022-12-09T16:10:03.611Z,61.29
2022-12-09T16:12:32.502Z,61.53
2022-12-09T16:14:59.496Z,61.60
2022-12-09T16:17:31.904Z,61.38
2022-12-09T16:19:59.052Z,61.65
2022-12-09T16:22:30.185Z,61.25
2022-12-09T16:25:21.858Z,61.55
2022-12-09T16:27:55.780Z,61.45
2022-12-09T16:30:25.944Z,62.02
2022-12-09T16:32:57.021Z,61.60
2022-12-09T16:35:28.332Z,61.90
2022-12-09T16:37:57.713Z,61.91
2022-12-09T16:40:24.273Z,61.83
2022-12-09T16:42:56.481Z,62.33
2022-12-09T16:45:31.888Z,61.76
2022-12-09T16:47:59.647Z,62.43
2022-12-09T16:50:30.363Z,62.52
2022-12-09T16:53:02.440Z,62.05
2022-12-09T16:55:30.930Z,62.03
2022-12-09T16:57:59.209Z,62.12
2022-12-09T17:00:26.179Z,62.55
2022-12-09T17:03:01.557Z,62.25
2022-12-09T17:05:28.441Z,62.25
2022-12-09T17:07:55.665Z,62.37
2022-12-09T17:10:22.590Z,62.04
2022-12-09T17:12:49.250Z,62.82
2022-12-09T17:15:18.561Z,62.33
2022-12-09T17:17:49.096Z,62.81
2022-12-09T17:20:16.347Z,62.61
2022-12-09T17:22:43.125Z,62.33
2022-12-09T17:25:10.390Z,63.09
2022-12-09T17:27:37.547Z,62.65
2022-12-09T17:30:05.195Z,62.81
2022-12-09T17:32:31.806Z,62.47
2022-12-09T17:34:58.681Z,62.31
2022-12-09T17:37:25.346Z,61.74
2022-12-09T17:39:56.838Z,62.51
2022-12-09T17:42:26.698Z,61.66
2022-12-09T17:44:53.286Z,62.47
2022-12-09T17:47:19.937Z,62.15
2022-12-09T17:49:46.767Z,61.93
2022-12-09T17:52:14.143Z,62.38
2022-12-09T17:54:40.782Z,63.04
2022-12-09T17:57:07.409Z,62.90
2022-12-09T17:59:34.082Z,62.99
2022-12-09T18:02:03.381Z,63.39
2022-12-09T18:04:31.356Z,63.37
2022-12-09T18:06:58.101Z,63.21
2022-12-09T18:09:24.858Z,63.19
2022-12-09T18:11:51.877Z,63.85
2022-12-09T18:14:20.418Z,63.55
2022-12-09T18:16:48.906Z,63.34
2022-12-09T18:19:17.460Z,63.01
2022-12-09T18:21:45.032Z,63.41
2022-12-09T18:24:12.674Z,63.35
2022-12-09T18:26:42.039Z,62.73
2022-12-09T18:29:10.488Z,62.52
2022-12-09T18:31:37.376Z,62.84
2022-12-09T18:34:04.116Z,63.09
2022-12-09T18:36:31.064Z,62.67
2022-12-09T18:39:01.534Z,62.76
2022-12-09T18:41:30.806Z,63.07
2022-12-09T18:43:59.597Z,63.04
2022-12-09T18:46:29.381Z,62.58
2022-12-09T18:49:05.025Z,63.24
2022-12-09T18:51:32.699Z,62.91
2022-12-09T18:54:00.903Z,62.77
2022-12-09T18:56:28.601Z,62.70
2022-12-09T18:59:11.528Z,62.96
2022-12-09T19:01:43.758Z,62.99
2022-12-09T19:04:21.731Z,63.54
2022-12-09T19:06:50.699Z,63.48
2022-12-09T19:09:26.583Z,62.83
2022-12-09T19:11:53.467Z,62.72
2022-12-09T19:14:21.783Z,63.79
2022-12-09T19:16:49.189Z,63.20
2022-12-09T19:19:18.474Z,63.08
2022-12-09T19:21:45.939Z,63.35
2022-12-09T19:24:15.840Z,63.39
2022-12-09T19:26:42.975Z,63.10
2022-12-09T19:29:10.646Z,63.37
2022-12-09T19:31:43.045Z,63.26
2022-12-09T19:34:15.996Z,63.63
2022-12-09T19:36:44.500Z,63.53
2022-12-09T19:39:16.426Z,63.61
2022-12-09T19:41:44.586Z,63.22
2022-12-09T19:44:21.618Z,63.76
2022-12-09T19:46:53.900Z,63.58
2022-12-09T19:49:21.839Z,63.19
2022-12-09T19:51:49.594Z,63.08
2022-12-09T19:54:16.725Z,63.97
2022-12-09T19:56:44.320Z,63.62
2022-12-09T19:59:11.908Z,63.15
2022-12-09T20:01:41.986Z,63.33
2022-12-09T20:07:08.601Z,62.98
2022-12-09T20:09:36.850Z,63.28
2022-12-09T20:12:04.189Z,63.51
2022-12-09T20:14:33.234Z,63.08
2022-12-09T20:16:59.888Z,62.79
2022-12-09T20:19:26.525Z,63.32
2022-12-09T20:21:53.576Z,62.96
2022-12-09T20:24:20.381Z,63.42
2022-12-09T20:26:47.010Z,62.48
2022-12-09T20:29:13.723Z,62.94
2022-12-09T20:31:42.551Z,62.37
2022-12-09T20:34:14.952Z,62.58
2022-12-09T20:36:43.553Z,62.21
2022-12-09T20:39:19.380Z,62.67
2022-12-09T20:41:47.805Z,63.12
2022-12-09T20:44:15.916Z,62.39
2022-12-09T20:46:48.426Z,62.73
2022-12-09T20:49:15.123Z,63.26
2022-12-09T20:51:45.064Z,62.79
2022-12-09T20:54:11.936Z,63.21
2022-12-09T20:56:38.803Z,63.75
2022-12-09T20:59:06.643Z,63.70
2022-12-09T21:01:34.795Z,63.61
2022-12-09T21:04:03.238Z,63.35
2022-12-09T21:06:33.352Z,62.94
2022-12-09T21:09:05.279Z,63.51
2022-12-09T21:11:32.488Z,63.60
2022-12-09T21:14:01.457Z,63.31
2022-12-09T21:16:33.630Z,62.87
2022-12-09T21:19:02.467Z,63.01
2022-12-09T21:21:31.878Z,63.30
2022-12-09T21:23:59.709Z,62.99
2022-12-09T21:26:27.497Z,62.88
2022-12-09T21:28:54.374Z,63.42
2022-12-09T21:31:26.463Z,63.24
2022-12-09T21:33:55.206Z,63.42
2022-12-09T21:36:24.896Z,62.95
2022-12-09T21:38:52.593Z,63.42
2022-12-09T21:41:22.188Z,62.86
2022-12-09T21:43:48.898Z,63.21
2022-12-09T21:46:20.887Z,62.73
2022-12-09T21:48:52.020Z,63.60
2022-12-09T21:51:19.963Z,63.55
2022-12-09T21:53:47.577Z,63.39
2022-12-09T21:56:19.923Z,63.32
2022-12-09T21:58:49.023Z,62.93
2022-12-09T22:01:22.087Z,63.48
2022-12-09T22:03:49.785Z,63.54
2022-12-09T22:06:17.642Z,63.50
2022-12-09T22:08:44.619Z,63.71
2022-12-09T22:11:16.652Z,63.60
2022-12-09T22:13:43.770Z,62.88
2022-12-09T22:16:13.276Z,63.38
2022-12-09T22:18:41.736Z,63.54
2022-12-09T22:21:28.026Z,63.41
2022-12-09T22:23:57.147Z,63.34
2022-12-09T22:26:24.227Z,63.42
2022-12-09T22:28:52.499Z,63.03
2022-12-09T22:31:26.477Z,63.20
2022-12-09T22:33:55.634Z,63.18
2022-12-09T22:36:22.971Z,63.12
2022-12-09T22:38:50.254Z,63.32
2022-12-09T22:41:22.168Z,63.11
2022-12-09T22:43:50.113Z,63.09
2022-12-09T22:46:21.402Z,63.12
2022-12-09T22:48:48.553Z,63.01
2022-12-09T22:51:27.751Z,63.46
2022-12-09T22:53:55.871Z,63.75
2022-12-09T22:56:24.347Z,63.75
2022-12-09T22:58:51.635Z,63.59
2022-12-09T23:01:22.053Z,63.64
2022-12-09T23:03:49.071Z,63.01
2022-12-09T23:06:15.728Z,63.11
2022-12-09T23:08:44.127Z,62.85
2022-12-09T23:11:14.791Z,63.32
2022-12-09T23:13:41.716Z,63.18
2022-12-09T23:16:12.299Z,62.86
2022-12-09T23:18:39.603Z,63.39
2022-12-09T23:21:09.401Z,63.04
2022-12-09T23:23:36.461Z,63.77
2022-12-09T23:26:09.589Z,62.97
2022-12-09T23:28:40.850Z,63.39
2022-12-09T23:31:09.972Z,63.18
2022-12-09T23:33:38.669Z,62.84
2022-12-09T23:36:11.711Z,63.39
2022-12-09T23:38:38.470Z,62.78
2022-12-09T23:41:06.016Z,62.65
2022-12-09T23:43:34.468Z,62.43
2022-12-09T23:46:04.638Z,62.45
2022-12-09T23:48:32.068Z,62.23
2022-12-09T23:51:00.101Z,62.51
2022-12-09T23:53:26.882Z,62.66
2022-12-09T23:55:53.550Z,62.65
2022-12-09T23:58:20.174Z,62.67
